createdAt,value
2019-05-15T00:01:02.351Z,6.93
2019-05-15T00:03:58.846Z,6.99
2019-05-15T00:06:54.643Z,6.98
2019-05-15T00:09:51.259Z,6.98
2019-05-15T00:12:48.613Z,6.95
2019-05-15T00:15:43.671Z,6.95
2019-05-15T00:18:48.063Z,6.91
2019-05-15T00:21:48.842Z,6.89
2019-05-15T00:24:43.543Z,6.87
2019-05-15T00:27:40.469Z,6.85
2019-05-15T00:30:38.786Z,6.85
2019-05-15T00:33:41.076Z,6.82
2019-05-15T00:36:42.756Z,6.78
2019-05-15T00:39:45.597Z,6.70
2019-05-15T00:42:42.154Z,6.68
2019-05-15T00:45:38.553Z,6.62
2019-05-15T00:48:35.094Z,6.57
2019-05-15T00:51:31.132Z,6.56
2019-05-15T00:54:28.269Z,6.55
2019-05-15T00:57:30.924Z,6.51
2019-05-15T01:00:28.184Z,6.53
2019-05-15T01:03:22.725Z,6.50
2019-05-15T01:06:19.209Z,6.50
2019-05-15T01:09:18.546Z,6.52
2019-05-15T01:12:12.258Z,6.52
2019-05-15T01:15:09.425Z,6.54
2019-05-15T01:18:04.069Z,6.48
2019-05-15T01:21:01.673Z,6.41
2019-05-15T01:23:58.960Z,6.41
2019-05-15T01:27:00.486Z,6.38
2019-05-15T01:29:58.328Z,6.37
2019-05-15T01:32:54.278Z,6.42
2019-05-15T01:35:51.137Z,6.42
2019-05-15T01:38:48.161Z,6.48
2019-05-15T01:41:45.223Z,6.42
2019-05-15T01:44:44.194Z,6.43
2019-05-15T01:47:40.920Z,6.47
2019-05-15T01:50:38.962Z,6.48
2019-05-15T01:53:34.068Z,6.48
2019-05-15T01:56:30.722Z,6.44
2019-05-15T01:59:30.278Z,6.48
2019-05-15T02:02:29.153Z,6.52
2019-05-15T02:05:24.961Z,6.55
2019-05-15T02:08:21.416Z,6.56
2019-05-15T02:11:18.083Z,6.57
2019-05-15T02:14:12.841Z,6.59
2019-05-15T02:17:09.514Z,6.58
2019-05-15T02:20:08.344Z,6.56
2019-05-15T02:23:04.116Z,6.54
2019-05-15T02:26:00.456Z,6.53
2019-05-15T02:28:57.126Z,6.53
2019-05-15T02:31:52.673Z,6.54
2019-05-15T02:34:50.092Z,6.54
2019-05-15T02:37:48.886Z,6.50
2019-05-15T02:40:44.838Z,6.50
2019-05-15T02:43:49.978Z,6.48
2019-05-15T02:46:44.966Z,6.45
2019-05-15T02:49:48.671Z,6.46
2019-05-15T02:52:49.845Z,6.44
2019-05-15T02:55:52.237Z,6.38
2019-05-15T02:58:49.055Z,6.31
2019-05-15T03:01:44.677Z,6.31
2019-05-15T03:04:40.442Z,6.30
2019-05-15T03:07:40.417Z,6.37
2019-05-15T03:10:34.212Z,6.41
2019-05-15T03:13:30.844Z,6.36
2019-05-15T03:16:30.125Z,6.33
2019-05-15T03:19:23.387Z,6.32
2019-05-15T03:22:20.324Z,6.32
2019-05-15T03:25:19.177Z,6.32
2019-05-15T03:28:12.612Z,6.38
2019-05-15T03:31:40.841Z,6.34
2019-05-15T03:34:20.668Z,6.29
2019-05-15T03:37:21.441Z,6.27
2019-05-15T03:40:13.558Z,6.23
2019-05-15T03:43:10.186Z,6.19
2019-05-15T03:46:09.077Z,6.18
2019-05-15T03:49:03.206Z,6.19
2019-05-15T03:52:00.058Z,6.18
2019-05-15T03:54:58.858Z,6.19
2019-05-15T03:57:53.592Z,6.21
2019-05-15T04:00:51.518Z,6.26
2019-05-15T04:03:52.264Z,6.24
2019-05-15T04:06:49.831Z,6.27
2019-05-15T04:09:44.432Z,6.33
2019-05-15T04:12:42.480Z,6.33
2019-05-15T04:15:39.531Z,6.33
2019-05-15T04:18:39.736Z,6.33
2019-05-15T04:21:41.171Z,6.35
2019-05-15T04:24:33.246Z,6.36
2019-05-15T04:27:33.169Z,6.36
2019-05-15T04:30:30.835Z,6.38
2019-05-15T04:33:25.011Z,6.38
2019-05-15T04:36:22.064Z,6.40
2019-05-15T04:39:19.370Z,6.42
2019-05-15T04:42:15.262Z,6.47
2019-05-15T04:45:11.667Z,6.43
2019-05-15T04:48:10.041Z,6.40
2019-05-15T04:51:03.813Z,6.38
2019-05-15T04:54:00.430Z,6.39
2019-05-15T04:56:59.317Z,6.38
2019-05-15T04:59:53.196Z,6.41
2019-05-15T05:02:49.618Z,6.39
2019-05-15T05:05:44.847Z,6.40
2019-05-15T05:08:40.373Z,6.41
2019-05-15T05:11:44.044Z,6.39
2019-05-15T05:14:40.159Z,6.38
2019-05-15T05:17:39.237Z,6.35
2019-05-15T05:20:34.633Z,6.35
2019-05-15T05:23:32.463Z,6.36
2019-05-15T05:26:29.323Z,6.36
2019-05-15T05:29:23.938Z,6.38
2019-05-15T05:32:31.383Z,6.43
2019-05-15T05:35:18.438Z,6.53
2019-05-15T05:38:13.024Z,6.50
2019-05-15T05:41:08.454Z,6.50
2019-05-15T05:44:08.111Z,6.51
2019-05-15T05:47:09.265Z,6.55
2019-05-15T05:50:11.353Z,6.59
2019-05-15T05:53:08.816Z,6.63
2019-05-15T05:56:04.908Z,6.70
2019-05-15T05:59:00.941Z,6.74
2019-05-15T06:01:58.975Z,6.79
2019-05-15T06:04:53.351Z,6.81
2019-05-15T06:07:54.396Z,6.78
2019-05-15T06:10:50.127Z,6.81
2019-05-15T06:13:52.190Z,6.77
2019-05-15T06:16:48.235Z,6.70
2019-05-15T06:19:42.571Z,6.67
2019-05-15T06:22:41.108Z,6.66
2019-05-15T06:25:38.939Z,6.63
2019-05-15T06:28:33.620Z,6.63
2019-05-15T06:31:29.112Z,6.67
2019-05-15T06:34:28.572Z,6.70
2019-05-15T06:37:23.507Z,6.72
2019-05-15T06:40:20.199Z,6.77
2019-05-15T06:43:19.183Z,6.84
2019-05-15T06:46:13.479Z,6.87
2019-05-15T06:49:09.042Z,6.88
2019-05-15T06:52:05.648Z,6.92
2019-05-15T06:55:00.925Z,6.93
2019-05-15T06:57:58.497Z,6.96
2019-05-15T07:00:59.293Z,6.98
2019-05-15T07:03:54.752Z,7.02
2019-05-15T07:06:50.651Z,7.06
2019-05-15T07:09:48.462Z,7.10
2019-05-15T07:12:42.739Z,7.17
2019-05-15T07:15:38.793Z,7.23
2019-05-15T07:18:35.626Z,7.25
2019-05-15T07:21:38.855Z,7.23
2019-05-15T07:24:34.069Z,7.29
2019-05-15T07:27:35.634Z,7.31
2019-05-15T07:30:31.551Z,7.28
2019-05-15T07:33:39.733Z,7.33
2019-05-15T07:36:24.567Z,7.42
2019-05-15T07:39:20.815Z,7.43
2019-05-15T07:42:18.485Z,7.47
2019-05-15T07:45:19.577Z,7.52
2019-05-15T07:48:14.583Z,7.60
2019-05-15T07:51:11.413Z,7.66
2019-05-15T07:54:09.144Z,7.72
2019-05-15T07:57:03.922Z,7.79
2019-05-15T08:00:01.007Z,7.87
2019-05-15T08:02:58.757Z,7.94
2019-05-15T08:05:59.331Z,7.94
2019-05-15T08:08:50.308Z,7.99
2019-05-15T08:11:48.357Z,8.05
2019-05-15T08:14:42.705Z,8.11
2019-05-15T08:17:59.173Z,8.17
2019-05-15T08:20:38.485Z,8.21
2019-05-15T08:23:36.048Z,8.17
2019-05-15T08:26:37.935Z,8.20
2019-05-15T08:29:32.691Z,8.24
2019-05-15T08:32:29.460Z,8.27
2019-05-15T08:35:29.134Z,8.33
2019-05-15T08:38:22.808Z,8.46
2019-05-15T08:41:19.481Z,8.67
2019-05-15T08:44:15.373Z,8.78
2019-05-15T08:47:13.434Z,8.91
2019-05-15T08:50:09.996Z,9.16
2019-05-15T08:53:08.398Z,9.33
2019-05-15T08:56:03.300Z,9.43
2019-05-15T08:58:59.608Z,9.63
2019-05-15T09:01:55.585Z,9.83
2019-05-15T09:04:53.416Z,9.97
2019-05-15T09:07:49.105Z,10.08
2019-05-15T09:10:45.906Z,10.24
2019-05-15T09:13:53.485Z,10.38
2019-05-15T09:16:45.275Z,10.40
2019-05-15T09:19:43.459Z,10.49
2019-05-15T09:22:41.888Z,10.52
2019-05-15T09:25:39.814Z,10.51
2019-05-15T09:28:35.065Z,10.26
2019-05-15T09:31:33.194Z,10.36
2019-05-15T09:34:46.387Z,10.44
2019-05-15T09:37:25.522Z,10.50
2019-05-15T09:40:22.232Z,10.65
2019-05-15T09:43:25.482Z,10.83
2019-05-15T09:46:22.126Z,11.09
2019-05-15T09:49:18.820Z,11.29
2019-05-15T09:52:19.974Z,11.44
2019-05-15T09:55:12.481Z,11.42
2019-05-15T09:58:08.545Z,11.41
2019-05-15T10:01:04.410Z,11.53
2019-05-15T10:04:02.050Z,11.70
2019-05-15T10:06:58.886Z,11.85
2019-05-15T10:09:55.947Z,11.87
2019-05-15T10:12:53.019Z,12.08
2019-05-15T10:15:51.068Z,12.01
2019-05-15T10:18:50.821Z,12.10
2019-05-15T10:21:45.218Z,12.38
2019-05-15T10:24:41.044Z,12.31
2019-05-15T10:27:39.781Z,12.50
2019-05-15T10:30:33.689Z,12.76
2019-05-15T10:33:30.400Z,12.64
2019-05-15T10:36:27.989Z,12.57
2019-05-15T10:39:23.838Z,12.54
2019-05-15T10:42:21.120Z,12.34
2019-05-15T10:45:19.235Z,12.24
2019-05-15T10:48:14.697Z,12.20
2019-05-15T10:51:10.392Z,12.37
2019-05-15T10:54:08.503Z,12.52
2019-05-15T10:57:05.381Z,12.62
2019-05-15T11:00:00.610Z,12.68
2019-05-15T11:02:57.949Z,12.59
2019-05-15T11:05:54.182Z,12.49
2019-05-15T11:08:51.894Z,12.43
2019-05-15T11:11:48.691Z,12.44
2019-05-15T11:14:44.508Z,12.52
2019-05-15T11:17:40.094Z,12.44
2019-05-15T11:20:40.861Z,12.41
2019-05-15T11:23:42.562Z,12.41
2019-05-15T11:26:39.095Z,12.32
2019-05-15T11:29:32.968Z,12.05
2019-05-15T11:32:29.571Z,11.94
2019-05-15T11:35:28.439Z,11.87
2019-05-15T11:38:23.059Z,11.87
2019-05-15T11:41:20.164Z,11.87
2019-05-15T11:44:15.336Z,11.75
2019-05-15T11:47:14.176Z,11.86
2019-05-15T11:50:11.894Z,12.00
2019-05-15T11:53:09.898Z,12.05
2019-05-15T11:56:09.462Z,11.94
2019-05-15T11:59:04.234Z,11.78
2019-05-15T12:02:08.482Z,11.94
2019-05-15T12:05:04.000Z,12.28
2019-05-15T12:08:00.761Z,12.46
2019-05-15T12:10:59.071Z,12.51
2019-05-15T12:13:53.088Z,12.42
2019-05-15T12:17:05.642Z,12.38
2019-05-15T12:19:54.793Z,12.32
2019-05-15T12:22:45.195Z,12.24
2019-05-15T12:25:42.145Z,12.01
2019-05-15T12:28:49.222Z,11.84
2019-05-15T12:31:49.117Z,11.79
2019-05-15T12:34:42.545Z,11.84
2019-05-15T12:37:40.799Z,11.85
2019-05-15T13:01:18.353Z,12.17
2019-05-15T13:04:12.700Z,12.20
2019-05-15T13:07:16.345Z,12.04
2019-05-15T13:10:11.696Z,11.97
2019-05-15T13:13:09.501Z,11.96
2019-05-15T13:16:04.973Z,11.83
2019-05-15T13:19:02.315Z,11.87
2019-05-15T13:21:59.986Z,11.86
2019-05-15T13:24:55.698Z,11.81
2019-05-15T13:27:52.435Z,11.64
2019-05-15T13:30:49.207Z,11.65
2019-05-15T13:33:48.129Z,11.60
2019-05-15T13:36:42.259Z,11.61
2019-05-15T13:39:40.131Z,11.65
2019-05-15T13:42:35.943Z,11.54
2019-05-15T13:45:33.752Z,11.63
2019-05-15T13:48:30.719Z,11.68
2019-05-15T13:51:29.033Z,11.77
2019-05-15T13:54:25.091Z,11.78
2019-05-15T13:57:21.872Z,11.78
2019-05-15T14:00:22.961Z,11.70
2019-05-15T14:03:19.958Z,11.78
2019-05-15T14:06:14.984Z,11.83
2019-05-15T14:09:11.355Z,11.79
2019-05-15T14:12:11.946Z,11.70
2019-05-15T14:15:09.080Z,11.66
2019-05-15T14:18:14.573Z,11.71
2019-05-15T14:21:13.287Z,11.66
2019-05-15T14:24:10.104Z,11.60
2019-05-15T14:27:08.186Z,11.61
2019-05-15T14:30:03.638Z,11.61
2019-05-15T14:33:00.296Z,11.61
2019-05-15T14:35:57.761Z,11.54
2019-05-15T14:38:54.369Z,11.54
2019-05-15T14:41:51.262Z,11.65
2019-05-15T14:44:53.929Z,11.74
2019-05-15T14:47:50.794Z,11.67
2019-05-15T14:50:47.891Z,11.60
2019-05-15T14:53:44.720Z,11.58
2019-05-15T14:56:40.402Z,11.56
2019-05-15T14:59:38.323Z,11.53
2019-05-15T15:02:34.619Z,11.57
2019-05-15T15:05:30.642Z,11.54
2019-05-15T15:08:28.692Z,11.58
2019-05-15T15:11:24.187Z,11.57
2019-05-15T15:14:20.891Z,11.61
2019-05-15T15:17:19.537Z,11.69
2019-05-15T15:20:17.920Z,11.65
2019-05-15T15:23:12.609Z,11.59
2019-05-15T15:26:09.648Z,11.59
2019-05-15T15:29:05.539Z,11.49
2019-05-15T15:32:02.226Z,11.41
2019-05-15T15:35:00.070Z,11.41
2019-05-15T15:37:58.060Z,11.46
2019-05-15T15:40:52.734Z,11.42
2019-05-15T15:43:48.617Z,11.46
2019-05-15T15:46:45.422Z,11.43
2019-05-15T15:49:42.360Z,11.31
2019-05-15T15:52:38.628Z,11.24
2019-05-15T15:55:35.158Z,11.25
2019-05-15T15:58:30.941Z,11.24
2019-05-15T16:01:31.004Z,11.22
2019-05-15T16:04:23.714Z,11.14
2019-05-15T16:07:20.626Z,10.90
2019-05-15T16:10:18.780Z,10.83
2019-05-15T16:13:13.685Z,10.80
2019-05-15T16:16:10.521Z,10.83
2019-05-15T16:19:05.931Z,10.79
2019-05-15T16:22:04.969Z,10.71
2019-05-15T16:25:02.446Z,10.63
2019-05-15T16:27:57.771Z,10.62
2019-05-15T16:30:54.971Z,10.54
2019-05-15T16:33:58.674Z,10.50
2019-05-15T16:37:05.390Z,10.49
2019-05-15T16:40:01.114Z,10.43
2019-05-15T16:42:58.820Z,10.40
2019-05-15T16:45:58.436Z,10.41
2019-05-15T16:48:51.723Z,10.41
2019-05-15T16:51:49.717Z,10.34
2019-05-15T16:54:45.485Z,10.34
2019-05-15T16:57:42.601Z,10.35
2019-05-15T17:00:38.673Z,10.42
2019-05-15T17:03:39.297Z,10.36
2019-05-15T17:06:38.533Z,10.19
2019-05-15T17:09:31.969Z,10.19
2019-05-15T17:12:30.080Z,10.19
2019-05-15T17:15:28.021Z,10.11
2019-05-15T17:18:22.089Z,9.98
2019-05-15T17:21:20.118Z,9.94
2019-05-15T17:24:15.686Z,9.97
2019-05-15T17:27:12.466Z,9.96
2019-05-15T17:30:09.471Z,9.93
2019-05-15T17:33:05.426Z,9.95
2019-05-15T17:36:02.507Z,9.94
2019-05-15T17:38:59.800Z,9.88
2019-05-15T17:41:59.364Z,9.87
2019-05-15T17:44:53.470Z,9.79
2019-05-15T17:47:49.630Z,9.72
2019-05-15T17:50:49.718Z,9.73
2019-05-15T17:53:50.704Z,9.70
2019-05-15T17:56:51.710Z,9.67
2019-05-15T17:59:48.680Z,9.65
2019-05-15T18:02:48.454Z,9.60
2019-05-15T18:05:45.282Z,9.53
2019-05-15T18:08:42.033Z,9.52
2019-05-15T18:11:38.320Z,9.50
2019-05-15T18:14:34.514Z,9.48
2019-05-15T18:17:32.396Z,9.50
2019-05-15T18:20:29.597Z,9.43
2019-05-15T18:23:24.966Z,9.38
2019-05-15T18:26:20.913Z,9.38
2019-05-15T18:29:17.761Z,9.31
2019-05-15T18:32:13.352Z,9.25
2019-05-15T18:35:10.119Z,9.26
2019-05-15T18:38:08.629Z,9.26
2019-05-15T18:41:03.881Z,9.26
2019-05-15T18:44:01.147Z,9.23
2019-05-15T18:46:58.179Z,9.17
2019-05-15T18:50:05.225Z,9.15
2019-05-15T18:52:50.369Z,9.16
2019-05-15T18:55:45.871Z,9.13
2019-05-15T18:58:42.594Z,9.09
2019-05-15T19:01:39.349Z,9.02
2019-05-15T19:04:38.271Z,9.01
2019-05-15T19:07:33.386Z,8.97
2019-05-15T19:10:31.824Z,8.93
2019-05-15T19:13:38.956Z,8.91
2019-05-15T19:16:34.355Z,8.88
2019-05-15T19:19:33.391Z,8.85
2019-05-15T19:22:30.596Z,8.85
2019-05-15T19:25:28.554Z,8.82
2019-05-15T19:28:23.206Z,8.74
2019-05-15T19:31:26.549Z,8.70
2019-05-15T19:34:18.833Z,8.73
2019-05-15T19:37:11.884Z,8.70
2019-05-15T19:40:08.860Z,8.69
2019-05-15T19:43:05.608Z,8.68
2019-05-15T19:46:02.405Z,8.65
2019-05-15T19:48:59.350Z,8.61
2019-05-15T19:51:55.129Z,8.57
2019-05-15T19:54:53.023Z,8.56
2019-05-15T19:57:48.907Z,8.53
2019-05-15T20:00:44.850Z,8.52
2019-05-15T20:03:49.277Z,8.46
2019-05-15T20:06:42.357Z,8.37
2019-05-15T20:09:41.486Z,8.33
2019-05-15T20:12:38.903Z,8.32
2019-05-15T20:15:33.772Z,8.24
2019-05-15T20:18:31.017Z,8.20
2019-05-15T20:21:29.016Z,8.17
2019-05-15T20:24:28.582Z,8.17
2019-05-15T20:27:21.634Z,8.15
2019-05-15T20:30:18.266Z,8.10
2019-05-15T20:33:13.887Z,8.07
2019-05-15T20:36:11.620Z,8.06
2019-05-15T20:39:08.247Z,8.03
2019-05-15T20:42:03.343Z,8.03
2019-05-15T20:45:01.181Z,8.00
2019-05-15T20:47:58.490Z,7.98
2019-05-15T20:50:53.279Z,7.97
2019-05-15T20:53:49.233Z,7.97
2019-05-15T20:56:45.904Z,7.90
2019-05-15T20:59:41.790Z,7.88
2019-05-15T21:02:38.284Z,7.89
2019-05-15T21:05:38.126Z,7.87
2019-05-15T21:08:31.620Z,7.88
2019-05-15T21:11:28.929Z,7.88
2019-05-15T21:14:24.452Z,7.90
2019-05-15T21:17:22.353Z,7.84
2019-05-15T21:20:20.293Z,7.80
2019-05-15T21:23:20.313Z,7.76
2019-05-15T21:26:18.816Z,7.69
2019-05-15T21:29:13.814Z,7.57
2019-05-15T21:32:10.774Z,7.49
2019-05-15T21:35:09.133Z,7.46
2019-05-15T21:38:03.836Z,7.45
2019-05-15T21:41:00.646Z,7.47
2019-05-15T21:43:58.862Z,7.48
2019-05-15T21:46:54.227Z,7.47
2019-05-15T21:49:49.785Z,7.46
2019-05-15T21:52:51.747Z,7.42
2019-05-15T21:55:50.661Z,7.44
2019-05-15T21:58:44.741Z,7.45
2019-05-15T22:01:41.314Z,7.45
2019-05-15T22:04:49.105Z,7.49
2019-05-15T22:07:34.871Z,7.51
2019-05-15T22:10:30.748Z,7.47
2019-05-15T22:13:31.539Z,7.41
2019-05-15T22:16:30.479Z,7.37
2019-05-15T22:19:32.314Z,7.38
2019-05-15T22:22:31.645Z,7.42
2019-05-15T22:25:28.016Z,7.43
2019-05-15T22:28:24.078Z,7.41
2019-05-15T22:31:19.640Z,7.42
2019-05-15T22:34:18.444Z,7.41
2019-05-15T22:37:14.546Z,7.39
2019-05-15T22:40:10.178Z,7.43
2019-05-15T22:43:08.271Z,7.44
2019-05-15T22:46:05.004Z,7.40
2019-05-15T22:49:01.965Z,7.36
2019-05-15T22:51:58.170Z,7.36
2019-05-15T22:54:53.578Z,7.30
2019-05-15T22:57:51.137Z,7.27
2019-05-15T23:00:48.963Z,7.26
2019-05-15T23:03:43.880Z,7.26
2019-05-15T23:06:40.692Z,7.19
2019-05-15T23:09:41.187Z,7.15
2019-05-15T23:12:38.442Z,7.10
2019-05-15T23:15:35.132Z,7.07
2019-05-15T23:18:32.103Z,7.11
2019-05-15T23:21:41.438Z,7.07
2019-05-15T23:24:38.755Z,7.05
2019-05-15T23:27:41.110Z,7.07
2019-05-15T23:30:36.411Z,7.09
2019-05-15T23:33:34.389Z,7.04
2019-05-15T23:36:33.801Z,6.97
2019-05-15T23:39:29.794Z,6.94
2019-05-15T23:42:28.997Z,6.98
2019-05-15T23:45:25.261Z,6.99
2019-05-15T23:48:28.288Z,7.00
2019-05-15T23:51:22.302Z,7.01
2019-05-15T23:54:18.831Z,7.00
2019-05-15T23:57:17.981Z,6.96
